createdAt,value
2022-10-05T00:01:28.725Z,100713.34
2022-10-05T00:04:01.471Z,100715.00
2022-10-05T00:06:31.348Z,100711.38
2022-10-05T00:09:02.424Z,100713.72
2022-10-05T00:11:30.868Z,100708.41
2022-10-05T00:14:00.977Z,100712.72
2022-10-05T00:16:30.640Z,100712.72
2022-10-05T00:19:01.219Z,100716.06
2022-10-05T00:21:30.498Z,100712.56
2022-10-05T00:24:00.090Z,100714.22
2022-10-05T00:26:33.281Z,100719.41
2022-10-05T00:29:03.857Z,100714.22
2022-10-05T00:31:34.112Z,100723.09
2022-10-05T00:34:03.259Z,100717.06
2022-10-05T00:36:31.679Z,100720.56
2022-10-05T00:39:03.200Z,100719.72
2022-10-05T00:41:43.406Z,100723.25
2022-10-05T00:44:36.177Z,100731.25
2022-10-05T00:47:15.931Z,100730.38
2022-10-05T00:50:00.728Z,100730.38
2022-10-05T00:52:36.380Z,100733.91
2022-10-05T00:55:13.143Z,100741.06
2022-10-05T00:57:54.125Z,100746.41
2022-10-05T01:00:27.394Z,100744.56
2022-10-05T01:03:02.640Z,100756.91
2022-10-05T01:05:44.586Z,100758.56
2022-10-05T01:08:27.223Z,100751.41
2022-10-05T01:11:08.884Z,100762.09
2022-10-05T01:13:48.366Z,100767.41
2022-10-05T01:16:25.413Z,100773.59
2022-10-05T01:19:00.706Z,100772.75
2022-10-05T01:21:32.770Z,100772.75
2022-10-05T01:24:45.806Z,100783.44
2022-10-05T01:27:31.788Z,100781.75
2022-10-05T01:30:07.761Z,100787.91
2022-10-05T01:32:43.692Z,100788.75
2022-10-05T01:35:24.418Z,100786.94
2022-10-05T01:38:06.688Z,100792.28
2022-10-05T01:40:46.172Z,100787.91
2022-10-05T01:43:22.672Z,100789.63
2022-10-05T01:46:02.104Z,100782.59
2022-10-05T01:48:42.788Z,100787.75
2022-10-05T01:51:20.281Z,100792.44
2022-10-05T01:54:02.270Z,100794.09
2022-10-05T01:56:40.396Z,100798.75
2022-10-05T01:59:21.902Z,100805.78
2022-10-05T02:01:56.333Z,100802.25
2022-10-05T02:05:00.509Z,100801.41
2022-10-05T02:07:25.076Z,100803.09
2022-10-05T02:09:58.076Z,100811.09
2022-10-05T02:12:30.934Z,100812.91
2022-10-05T02:15:09.358Z,100806.75
2022-10-05T02:17:43.623Z,100806.75
2022-10-05T02:20:15.972Z,100808.44
2022-10-05T02:22:49.289Z,100809.25
2022-10-05T02:25:19.927Z,100821.78
2022-10-05T02:27:54.655Z,100821.78
2022-10-05T02:30:25.372Z,100827.09
2022-10-05T02:32:57.751Z,100833.41
2022-10-05T02:35:27.399Z,100832.28
2022-10-05T02:38:07.329Z,100844.47
2022-10-05T02:40:46.290Z,100843.47
2022-10-05T02:43:25.430Z,100849.66
2022-10-05T02:46:03.874Z,100841.50
2022-10-05T02:48:45.959Z,100854.00
2022-10-05T02:51:21.500Z,100851.16
2022-10-05T02:54:02.266Z,100851.16
2022-10-05T02:56:37.635Z,100852.84
2022-10-05T02:59:15.331Z,100850.16
2022-10-05T03:01:53.166Z,100858.88
2022-10-05T03:04:30.828Z,100865.19
2022-10-05T03:07:07.604Z,100875.03
2022-10-05T03:09:40.771Z,100869.69
2022-10-05T03:12:16.964Z,100867.88
2022-10-05T03:14:56.728Z,100878.53
2022-10-05T03:17:27.880Z,100883.88
2022-10-05T03:20:18.732Z,100886.53
2022-10-05T03:22:54.198Z,100896.91
2022-10-05T03:25:46.460Z,100899.59
2022-10-05T03:28:24.837Z,100900.41
2022-10-05T03:31:01.608Z,100902.91
2022-10-05T03:33:43.941Z,100903.13
2022-10-05T03:36:22.697Z,100902.31
2022-10-05T03:39:00.801Z,100896.56
2022-10-05T03:41:37.872Z,100909.16
2022-10-05T03:44:19.194Z,100900.88
2022-10-05T03:47:04.609Z,100906.81
2022-10-05T03:49:46.823Z,100912.00
2022-10-05T03:52:18.733Z,100905.97
2022-10-05T03:54:52.357Z,100916.97
2022-10-05T03:57:24.782Z,100925.28
2022-10-05T04:00:01.436Z,100931.41
2022-10-05T04:02:35.869Z,100934.63
2022-10-05T04:05:16.458Z,100930.97
2022-10-05T04:07:51.417Z,100933.78
2022-10-05T04:10:25.428Z,100934.34
2022-10-05T04:13:00.588Z,100932.63
2022-10-05T04:15:35.267Z,100935.63
2022-10-05T04:18:07.345Z,100934.09
2022-10-05T04:20:44.429Z,100940.28
2022-10-05T04:23:21.869Z,100940.56
2022-10-05T04:25:55.228Z,100939.72
2022-10-05T04:28:32.307Z,100948.63
2022-10-05T04:31:06.581Z,100947.66
2022-10-05T04:33:34.930Z,100941.78
2022-10-05T04:36:18.111Z,100952.44
2022-10-05T04:38:58.342Z,100947.28
2022-10-05T04:41:42.504Z,100949.78
2022-10-05T04:44:29.806Z,100954.31
2022-10-05T04:47:12.449Z,100950.63
2022-10-05T04:50:00.838Z,100948.97
2022-10-05T04:52:39.494Z,100942.94
2022-10-05T04:55:18.345Z,100949.56
2022-10-05T04:57:55.552Z,100953.22
2022-10-05T05:00:25.876Z,100953.22
2022-10-05T05:03:23.995Z,100950.56
2022-10-05T05:06:16.759Z,100949.00
2022-10-05T05:09:06.277Z,100951.81
2022-10-05T05:11:40.855Z,100958.00
2022-10-05T05:14:36.937Z,100962.34
2022-10-05T05:17:21.553Z,100960.53
2022-10-05T05:20:03.333Z,100961.38
2022-10-05T05:22:41.203Z,100957.84
2022-10-05T05:25:24.350Z,100959.53
2022-10-05T05:27:56.317Z,100961.38
2022-10-05T05:30:35.486Z,100969.53
2022-10-05T05:33:18.951Z,100979.34
2022-10-05T05:36:10.290Z,100979.47
2022-10-05T05:38:46.918Z,100986.63
2022-10-05T05:41:25.077Z,100984.13
2022-10-05T05:44:06.321Z,100991.16
2022-10-05T05:47:02.293Z,100993.81
2022-10-05T05:49:39.299Z,100992.81
2022-10-05T05:52:15.895Z,100994.50
2022-10-05T05:54:51.440Z,100997.28
2022-10-05T05:57:26.499Z,101003.47
2022-10-05T06:00:05.816Z,100999.97
2022-10-05T06:02:55.714Z,101007.16
2022-10-05T06:05:40.157Z,100999.16
2022-10-05T06:08:17.629Z,101003.47
2022-10-05T06:10:53.985Z,101000.09
2022-10-05T06:13:28.797Z,101010.47
2022-10-05T06:16:02.883Z,101012.47
2022-10-05T06:18:33.784Z,101014.16
2022-10-05T06:21:08.193Z,101020.31
2022-10-05T06:23:45.182Z,101007.81
2022-10-05T06:26:23.054Z,101016.81
2022-10-05T06:28:59.376Z,101024.81
2022-10-05T06:31:46.061Z,101026.47
2022-10-05T06:34:29.856Z,101017.81
2022-10-05T06:37:03.006Z,101023.16
2022-10-05T06:40:02.275Z,101030.16
2022-10-05T06:42:48.013Z,101039.13
2022-10-05T06:45:55.658Z,101039.13
2022-10-05T06:49:12.912Z,101031.28
2022-10-05T06:51:56.711Z,101028.63
2022-10-05T06:54:53.410Z,101033.25
2022-10-05T06:57:53.254Z,101033.09
2022-10-05T07:00:24.952Z,101041.09
2022-10-05T07:03:02.045Z,101032.44
2022-10-05T07:06:07.552Z,101031.72
2022-10-05T07:08:51.949Z,101041.94
2022-10-05T07:11:32.732Z,101038.84
2022-10-05T07:14:15.391Z,101034.63
2022-10-05T07:16:55.617Z,101029.63
2022-10-05T07:19:36.354Z,101030.44
2022-10-05T07:22:33.370Z,101030.72
2022-10-05T07:25:11.092Z,101021.06
2022-10-05T07:27:50.927Z,101030.72
2022-10-05T07:30:21.811Z,101025.41
2022-10-05T07:32:59.818Z,101024.44
2022-10-05T07:35:58.892Z,101031.56
2022-10-05T07:38:34.740Z,101023.72
2022-10-05T07:41:07.625Z,101024.56
2022-10-05T07:44:02.142Z,101030.44
2022-10-05T07:46:47.166Z,101030.59
2022-10-05T07:49:24.544Z,101034.09
2022-10-05T07:51:58.545Z,101039.44
2022-10-05T07:54:31.971Z,101047.44
2022-10-05T07:57:12.716Z,101051.75
2022-10-05T07:59:49.073Z,101048.28
2022-10-05T08:02:25.259Z,101034.78
2022-10-05T08:05:02.723Z,101049.81
2022-10-05T08:07:36.164Z,101049.81
2022-10-05T08:10:18.218Z,101055.97
2022-10-05T08:13:01.430Z,101049.81
2022-10-05T08:15:35.436Z,101052.47
2022-10-05T08:18:11.792Z,101055.97
2022-10-05T08:20:48.721Z,101056.81
2022-10-05T08:23:25.314Z,101051.63
2022-10-05T08:26:05.438Z,101068.63
2022-10-05T08:28:39.144Z,101061.44
2022-10-05T08:31:18.010Z,101066.09
2022-10-05T08:33:56.666Z,101065.25
2022-10-05T08:36:46.736Z,101068.91
2022-10-05T08:39:20.967Z,101074.81
2022-10-05T08:42:07.962Z,101073.63
2022-10-05T08:44:58.793Z,101077.44
2022-10-05T08:47:47.578Z,101085.56
2022-10-05T08:50:58.087Z,101084.88
2022-10-05T08:53:51.748Z,101077.03
2022-10-05T08:56:38.990Z,101076.75
2022-10-05T08:59:42.758Z,101082.38
2022-10-05T09:02:22.706Z,101083.03
2022-10-05T09:05:04.339Z,101091.50
2022-10-05T09:07:52.731Z,101091.47
2022-10-05T09:10:48.364Z,101098.47
2022-10-05T09:13:53.174Z,101097.06
2022-10-05T09:16:50.496Z,101103.66
2022-10-05T09:20:01.365Z,101095.69
2022-10-05T09:22:39.170Z,101103.94
2022-10-05T09:25:21.253Z,101091.63
2022-10-05T09:27:56.040Z,101098.34
2022-10-05T09:30:32.461Z,101096.25
2022-10-05T09:33:33.584Z,101099.06
2022-10-05T09:36:30.648Z,101102.56
2022-10-05T09:39:46.317Z,101095.97
2022-10-05T09:42:51.180Z,101093.44
2022-10-05T09:45:54.521Z,101091.91
2022-10-05T09:49:01.372Z,101087.72
2022-10-05T09:52:18.830Z,101090.34
2022-10-05T09:55:19.026Z,101086.00
2022-10-05T09:58:14.836Z,101086.69
2022-10-05T10:01:09.574Z,101079.41
2022-10-05T10:04:10.224Z,101083.63
2022-10-05T10:07:07.855Z,101077.31
2022-10-05T10:09:47.809Z,101083.91
2022-10-05T10:12:35.228Z,101078.44
2022-10-05T10:15:36.908Z,101077.44
2022-10-05T10:18:58.893Z,101071.53
2022-10-05T10:21:46.780Z,101072.91
2022-10-05T10:24:29.548Z,101072.50
2022-10-05T10:27:17.723Z,101074.00
2022-10-05T10:30:05.584Z,101061.53
2022-10-05T10:33:02.670Z,101065.03
2022-10-05T10:35:36.445Z,101061.69
2022-10-05T10:38:33.867Z,101063.22
2022-10-05T10:41:33.742Z,101056.88
2022-10-05T10:44:34.640Z,101049.75
2022-10-05T10:47:28.199Z,101047.06
2022-10-05T10:50:33.359Z,101063.06
2022-10-05T10:53:16.168Z,101064.75
2022-10-05T10:55:59.045Z,101065.72
2022-10-05T10:58:49.992Z,101071.06
2022-10-05T11:01:32.582Z,101067.41
2022-10-05T11:04:26.266Z,101075.13
2022-10-05T11:07:30.258Z,101071.44
2022-10-05T11:10:42.959Z,101062.50
2022-10-05T11:13:28.453Z,101064.31
2022-10-05T11:19:03.328Z,101064.44
2022-10-05T11:21:40.409Z,101066.44
2022-10-05T11:24:50.338Z,101062.06
2022-10-05T11:27:51.251Z,101061.25
2022-10-05T11:30:48.889Z,101051.56
2022-10-05T11:33:45.982Z,101055.06
2022-10-05T11:36:35.049Z,101048.06
2022-10-05T11:39:23.203Z,101046.22
2022-10-05T11:42:23.266Z,101050.75
2022-10-05T11:45:19.415Z,101042.59
2022-10-05T11:48:03.319Z,101040.47
2022-10-05T11:50:39.813Z,101049.16
2022-10-05T11:53:17.159Z,101052.78
2022-10-05T11:55:57.810Z,101049.31
2022-10-05T11:58:32.813Z,101053.78
2022-10-05T12:01:07.499Z,101051.28
2022-10-05T12:03:48.211Z,101052.13
2022-10-05T12:06:31.133Z,101054.94
2022-10-05T12:09:14.633Z,101052.25
2022-10-05T12:12:01.073Z,101053.25
2022-10-05T12:14:39.533Z,101052.41
2022-10-05T12:17:21.827Z,101053.41
2022-10-05T12:19:57.443Z,101067.53
2022-10-05T12:22:34.295Z,101068.41
2022-10-05T12:25:19.393Z,101066.72
2022-10-05T12:27:51.232Z,101065.88
2022-10-05T12:30:36.186Z,101069.53
2022-10-05T12:33:10.183Z,101074.00
2022-10-05T12:35:48.923Z,101081.34
2022-10-05T12:38:28.622Z,101073.88
2022-10-05T12:41:05.729Z,101075.81
2022-10-05T12:43:41.914Z,101074.00
2022-10-05T12:46:22.441Z,101081.88
2022-10-05T12:49:21.001Z,101077.38
2022-10-05T12:51:58.032Z,101071.91
2022-10-05T12:54:39.959Z,101076.25
2022-10-05T12:57:16.746Z,101077.09
2022-10-05T12:59:52.275Z,101068.09
2022-10-05T13:02:30.650Z,101066.44
2022-10-05T13:05:05.734Z,101071.78
2022-10-05T13:07:45.244Z,101070.06
2022-10-05T13:10:28.863Z,101070.06
2022-10-05T13:13:21.444Z,101079.06
2022-10-05T13:15:55.605Z,101075.41
2022-10-05T13:18:31.059Z,101079.06
2022-10-05T13:21:07.416Z,101084.38
2022-10-05T13:23:45.024Z,101087.06
2022-10-05T13:26:19.670Z,101087.06
2022-10-05T13:28:56.689Z,101090.56
2022-10-05T13:31:28.610Z,101091.09
2022-10-05T13:34:08.937Z,101089.81
2022-10-05T13:36:49.472Z,101099.53
2022-10-05T13:39:31.761Z,101108.22
2022-10-05T13:42:07.395Z,101101.91
2022-10-05T13:44:44.104Z,101105.28
2022-10-05T13:47:21.294Z,101110.47
2022-10-05T13:49:55.273Z,101116.94
2022-10-05T13:52:43.787Z,101111.75
2022-10-05T13:55:30.540Z,101108.22
2022-10-05T13:58:07.068Z,101108.22
2022-10-05T14:00:42.753Z,101111.75
2022-10-05T14:03:27.695Z,101116.09
2022-10-05T14:05:58.197Z,101115.22
2022-10-05T14:08:31.722Z,101113.56
2022-10-05T14:11:00.635Z,101129.56
2022-10-05T14:13:35.405Z,101130.41
2022-10-05T14:16:21.737Z,101137.56
2022-10-05T14:18:56.592Z,101134.03
2022-10-05T14:21:26.865Z,101140.31
2022-10-05T14:23:57.649Z,101144.13
2022-10-05T14:26:36.450Z,101149.59
2022-10-05T14:29:19.579Z,101155.06
2022-10-05T14:31:55.361Z,101153.41
2022-10-05T14:34:30.157Z,101155.22
2022-10-05T14:37:01.693Z,101165.72
2022-10-05T14:39:35.248Z,101155.91
2022-10-05T14:42:15.223Z,101166.44
2022-10-05T14:44:46.316Z,101165.59
2022-10-05T14:47:22.745Z,101164.75
2022-10-05T14:50:09.980Z,101164.06
2022-10-05T14:52:40.787Z,101160.53
2022-10-05T14:55:45.078Z,101158.88
2022-10-05T14:58:58.134Z,101157.34
2022-10-05T15:01:31.184Z,101176.97
2022-10-05T15:04:15.187Z,101179.63
2022-10-05T15:06:55.297Z,101185.38
2022-10-05T15:09:42.948Z,101194.66
2022-10-05T15:12:15.292Z,101189.59
2022-10-05T15:14:46.187Z,101188.59
2022-10-05T15:17:20.682Z,101187.94
2022-10-05T15:20:03.890Z,101203.06
2022-10-05T15:22:45.069Z,101201.25
2022-10-05T15:25:17.735Z,101205.59
2022-10-05T15:28:00.150Z,101209.25
2022-10-05T15:30:28.725Z,101209.25
2022-10-05T15:33:14.593Z,101210.91
2022-10-05T15:36:01.732Z,101221.44
2022-10-05T15:38:37.338Z,101209.06
2022-10-05T15:41:15.046Z,101213.44
2022-10-05T15:43:51.397Z,101222.56
2022-10-05T15:46:25.914Z,101218.19
2022-10-05T15:49:06.315Z,101231.53
2022-10-05T15:51:51.037Z,101231.66
2022-10-05T15:54:43.442Z,101230.84
2022-10-05T15:57:22.613Z,101229.13
2022-10-05T16:00:02.057Z,101229.28
2022-10-05T16:02:41.325Z,101223.13
2022-10-05T16:05:45.837Z,101225.78
2022-10-05T16:08:52.680Z,101236.44
2022-10-05T16:11:28.696Z,101232.78
2022-10-05T16:14:06.292Z,101234.47
2022-10-05T16:16:42.815Z,101239.94
2022-10-05T16:19:18.258Z,101233.66
2022-10-05T16:21:58.062Z,101242.59
2022-10-05T16:24:42.712Z,101249.06
2022-10-05T16:27:18.399Z,101246.56
2022-10-05T16:29:53.496Z,101238.13
2022-10-05T16:32:25.771Z,101255.13
2022-10-05T16:35:08.119Z,101251.19
2022-10-05T16:37:45.545Z,101261.13
2022-10-05T16:40:21.358Z,101253.97
2022-10-05T16:43:00.250Z,101262.41
2022-10-05T16:45:51.844Z,101267.03
2022-10-05T16:48:26.763Z,101275.72
2022-10-05T16:51:07.704Z,101269.41
2022-10-05T16:53:41.437Z,101273.19
2022-10-05T16:56:13.198Z,101275.72
2022-10-05T16:58:59.016Z,101277.25
2022-10-05T17:01:42.555Z,101271.09
2022-10-05T17:04:26.156Z,101287.91
2022-10-05T17:07:17.263Z,101280.78
2022-10-05T17:10:21.052Z,101292.44
2022-10-05T17:13:01.765Z,101300.44
2022-10-05T17:15:39.838Z,101295.25
2022-10-05T17:18:29.570Z,101310.38
2022-10-05T17:21:05.616Z,101303.25
2022-10-05T17:23:53.706Z,101306.91
2022-10-05T17:26:54.980Z,101302.38
2022-10-05T17:29:32.560Z,101315.72
2022-10-05T17:32:12.561Z,101308.56
2022-10-05T17:35:18.153Z,101299.59
2022-10-05T17:38:14.565Z,101306.72
2022-10-05T17:41:03.257Z,101305.78
2022-10-05T17:43:33.668Z,101303.78
2022-10-05T17:46:02.891Z,101303.78
2022-10-05T17:48:43.331Z,101309.97
2022-10-05T17:51:56.995Z,101302.81
2022-10-05T17:54:44.515Z,101298.16
2022-10-05T17:57:19.840Z,101304.34
2022-10-05T17:59:59.423Z,101299.88
2022-10-05T18:02:42.938Z,101305.22
2022-10-05T18:05:27.832Z,101298.16
2022-10-05T18:08:32.607Z,101301.69
2022-10-05T18:11:17.325Z,101302.53
2022-10-05T18:13:50.193Z,101292.84
2022-10-05T18:16:51.743Z,101296.22
2022-10-05T18:19:23.566Z,101292.84
2022-10-05T18:22:03.578Z,101290.16
2022-10-05T18:25:04.049Z,101291.03
2022-10-05T18:28:06.232Z,101301.53
2022-10-05T18:30:41.834Z,101303.50
2022-10-05T18:33:32.585Z,101305.22
2022-10-05T18:36:22.347Z,101306.03
2022-10-05T18:38:59.758Z,101309.56
2022-10-05T18:41:41.776Z,101319.22
2022-10-05T18:44:26.506Z,101320.06
2022-10-05T18:47:03.332Z,101320.91
2022-10-05T18:49:45.149Z,101320.91
2022-10-05T18:52:24.046Z,101332.41
2022-10-05T18:55:04.009Z,101331.56
2022-10-05T18:57:59.012Z,101327.09
2022-10-05T19:00:41.139Z,101323.56
2022-10-05T19:03:20.777Z,101329.88
2022-10-05T19:05:57.657Z,101336.06
2022-10-05T19:08:39.259Z,101332.41
2022-10-05T19:11:19.207Z,101339.69
2022-10-05T19:13:55.935Z,101334.38
2022-10-05T19:16:54.644Z,101344.22
2022-10-05T19:19:38.542Z,101343.38
2022-10-05T19:22:13.267Z,101344.22
2022-10-05T19:24:56.800Z,101342.38
2022-10-05T19:27:38.240Z,101339.69
2022-10-05T19:30:15.635Z,101345.88
2022-10-05T19:33:08.651Z,101344.22
2022-10-05T19:35:47.328Z,101343.38
2022-10-05T19:38:26.611Z,101339.88
2022-10-05T19:41:04.577Z,101348.84
2022-10-05T19:43:47.506Z,101347.16
2022-10-05T19:46:25.478Z,101344.50
2022-10-05T19:48:55.189Z,101342.81
2022-10-05T19:51:31.836Z,101339.28
2022-10-05T19:54:03.961Z,101341.97
2022-10-05T19:56:35.495Z,101348.16
2022-10-05T19:59:13.338Z,101342.81
2022-10-05T20:01:49.304Z,101346.16
2022-10-05T20:04:33.462Z,101346.44
2022-10-05T20:07:02.489Z,101349.09
2022-10-05T20:09:49.532Z,101344.78
2022-10-05T20:12:19.287Z,101336.91
2022-10-05T20:15:01.408Z,101331.56
2022-10-05T20:17:47.221Z,101340.44
2022-10-05T20:20:36.569Z,101343.09
2022-10-05T20:23:20.748Z,101337.75
2022-10-05T20:26:09.913Z,101346.59
2022-10-05T20:28:40.105Z,101350.09
2022-10-05T20:31:08.909Z,101355.44
2022-10-05T20:33:37.335Z,101348.44
2022-10-05T20:36:05.857Z,101353.03
2022-10-05T20:38:40.059Z,101357.38
2022-10-05T20:41:09.280Z,101354.88
2022-10-05T20:43:39.445Z,101356.69
2022-10-05T20:46:09.169Z,101354.03
2022-10-05T20:48:37.387Z,101355.72
2022-10-05T20:51:05.901Z,101362.03
2022-10-05T20:53:34.185Z,101369.19
2022-10-05T20:56:04.823Z,101363.03
2022-10-05T20:58:33.035Z,101371.03
2022-10-05T21:01:18.580Z,101373.69
2022-10-05T21:03:48.352Z,101373.69
2022-10-05T21:06:18.053Z,101375.38
2022-10-05T21:08:47.445Z,101383.38
2022-10-05T21:11:15.885Z,101380.56
2022-10-05T21:13:45.852Z,101372.56
2022-10-05T21:16:15.598Z,101377.03
2022-10-05T21:18:47.010Z,101376.22
2022-10-05T21:21:17.322Z,101375.38
2022-10-05T21:23:45.836Z,101375.38
2022-10-05T21:26:14.413Z,101375.38
2022-10-05T21:28:43.150Z,101366.66
2022-10-05T21:31:11.691Z,101371.97
2022-10-05T21:33:39.966Z,101384.50
2022-10-05T21:36:08.162Z,101389.81
2022-10-05T21:38:37.973Z,101386.31
2022-10-05T21:41:06.495Z,101383.63
2022-10-05T21:43:34.778Z,101371.31
2022-10-05T21:46:03.583Z,101385.47
2022-10-05T21:48:33.532Z,101379.31
2022-10-05T21:51:02.721Z,101375.66
2022-10-05T21:53:33.970Z,101376.63
2022-10-05T21:56:05.292Z,101380.97
2022-10-05T21:58:33.658Z,101387.03
2022-10-05T22:01:01.847Z,101366.66
2022-10-05T22:03:30.382Z,101371.97
2022-10-05T22:05:58.647Z,101359.50
2022-10-05T22:08:29.403Z,101348.84
2022-10-05T22:10:58.777Z,101343.66
2022-10-05T22:13:40.358Z,101340.13
2022-10-05T22:16:08.735Z,101339.31
2022-10-05T22:18:37.217Z,101334.94
2022-10-05T22:21:06.516Z,101339.44
2022-10-05T22:23:36.088Z,101344.78
2022-10-05T22:26:05.465Z,101347.44
2022-10-05T22:28:34.958Z,101355.44
2022-10-05T22:31:05.892Z,101357.25
2022-10-05T22:33:34.179Z,101355.59
2022-10-05T22:36:02.589Z,101358.25
2022-10-05T22:38:31.399Z,101363.59
2022-10-05T22:40:59.861Z,101367.09
2022-10-05T22:43:28.281Z,101366.25
2022-10-05T22:45:58.005Z,101366.25
2022-10-05T22:48:26.674Z,101373.25
2022-10-05T22:50:55.258Z,101373.25
2022-10-05T22:53:23.473Z,101374.25
2022-10-05T22:55:51.665Z,101361.91
2022-10-05T22:58:19.855Z,101364.56
2022-10-05T23:00:58.064Z,101363.59
2022-10-05T23:03:28.482Z,101352.06
2022-10-05T23:06:03.191Z,101361.91
2022-10-05T23:08:31.973Z,101354.88
2022-10-05T23:11:04.504Z,101360.19
2022-10-05T23:13:33.653Z,101367.25
2022-10-05T23:16:07.924Z,101367.25
2022-10-05T23:18:37.944Z,101361.06
2022-10-05T23:21:07.521Z,101361.06
2022-10-05T23:23:37.151Z,101369.91
2022-10-05T23:26:06.524Z,101369.03
2022-10-05T23:28:34.663Z,101362.88
2022-10-05T23:31:04.799Z,101371.72
2022-10-05T23:33:33.665Z,101372.56
2022-10-05T23:36:05.351Z,101372.56
2022-10-05T23:38:33.856Z,101374.25
2022-10-05T23:41:02.754Z,101372.69
2022-10-05T23:43:33.410Z,101376.19
2022-10-05T23:46:02.153Z,101374.53
2022-10-05T23:48:31.502Z,101376.19
2022-10-05T23:51:00.820Z,101371.84
2022-10-05T23:53:30.515Z,101372.84
2022-10-05T23:55:58.849Z,101362.19
2022-10-05T23:58:28.060Z,101361.19
